sensor_id;sensor_type;location;lat;lon;timestamp;pressure;altitude;pressure_sealevel;temperature;humidity
23118;BME280;11728;50.624;6.014;2023-03-16T00:04:13;98494.28;;;4.36;74.47
23118;BME280;11728;50.624;6.014;2023-03-16T00:09:13;98486.47;;;4.39;74.62
23118;BME280;11728;50.624;6.014;2023-03-16T00:14:14;98479.50;;;4.47;74.55
23118;BME280;11728;50.624;6.014;2023-03-16T00:19:14;98484.78;;;4.57;73.82
23118;BME280;11728;50.624;6.014;2023-03-16T00:24:14;98480.44;;;4.65;72.71
23118;BME280;11728;50.624;6.014;2023-03-16T00:29:17;98478.72;;;4.71;71.72
23118;BME280;11728;50.624;6.014;2023-03-16T00:34:18;98470.00;;;4.72;71.53
23118;BME280;11728;50.624;6.014;2023-03-16T00:39:18;98477.88;;;4.81;71.00
23118;BME280;11728;50.624;6.014;2023-03-16T00:44:19;98476.13;;;4.83;70.21
23118;BME280;11728;50.624;6.014;2023-03-16T00:49:20;98465.69;;;4.92;69.66
23118;BME280;11728;50.624;6.014;2023-03-16T00:54:21;98449.13;;;4.92;69.35
23118;BME280;11728;50.624;6.014;2023-03-16T00:59:21;98451.75;;;4.93;69.19
23118;BME280;11728;50.624;6.014;2023-03-16T01:04:22;98444.75;;;4.92;69.02
23118;BME280;11728;50.624;6.014;2023-03-16T01:09:22;98434.28;;;4.88;69.08
23118;BME280;11728;50.624;6.014;2023-03-16T01:14:22;98429.94;;;4.91;68.69
23118;BME280;11728;50.624;6.014;2023-03-16T01:19:23;98430.81;;;4.87;69.02
23118;BME280;11728;50.624;6.014;2023-03-16T01:24:24;98427.31;;;4.88;69.33
23118;BME280;11728;50.624;6.014;2023-03-16T01:29:24;98402.00;;;4.90;69.17
23118;BME280;11728;50.624;6.014;2023-03-16T01:34:24;98409.88;;;4.87;69.69
23118;BME280;11728;50.624;6.014;2023-03-16T01:39:25;98398.53;;;4.87;69.92
23118;BME280;11728;50.624;6.014;2023-03-16T01:44:26;98386.34;;;4.87;70.11
23118;BME280;11728;50.624;6.014;2023-03-16T01:49:32;98373.25;;;4.93;69.45
23118;BME280;11728;50.624;6.014;2023-03-16T01:54:42;98375.00;;;4.94;69.29
23118;BME280;11728;50.624;6.014;2023-03-16T01:59:45;98356.69;;;4.96;68.97
23118;BME280;11728;50.624;6.014;2023-03-16T02:04:52;98367.16;;;4.94;69.29
23118;BME280;11728;50.624;6.014;2023-03-16T02:09:57;98355.81;;;4.92;69.70
23118;BME280;11728;50.624;6.014;2023-03-16T02:15:00;98360.16;;;4.84;70.17
23118;BME280;11728;50.624;6.014;2023-03-16T02:25:15;98340.09;;;4.77;70.68
23118;BME280;11728;50.624;6.014;2023-03-16T02:30:18;98354.06;;;4.75;70.76
23118;BME280;11728;50.624;6.014;2023-03-16T02:35:20;98346.19;;;4.72;71.04
23118;BME280;11728;50.624;6.014;2023-03-16T02:40:25;98360.16;;;4.69;71.48
23118;BME280;11728;50.624;6.014;2023-03-16T02:45:28;98352.31;;;4.72;71.27
23118;BME280;11728;50.624;6.014;2023-03-16T02:50:32;98357.56;;;4.75;71.86
23118;BME280;11728;50.624;6.014;2023-03-16T02:55:32;98347.09;;;4.72;71.62
23118;BME280;11728;50.624;6.014;2023-03-16T03:00:33;98336.63;;;4.72;72.02
23118;BME280;11728;50.624;6.014;2023-03-16T03:05:34;98334.88;;;4.77;72.02
23118;BME280;11728;50.624;6.014;2023-03-16T03:10:34;98334.88;;;4.83;71.66
23118;BME280;11728;50.624;6.014;2023-03-16T03:15:35;98329.66;;;4.86;71.78
23118;BME280;11728;50.624;6.014;2023-03-16T03:20:35;98316.56;;;4.91;71.53
23118;BME280;11728;50.624;6.014;2023-03-16T03:25:35;98319.22;;;4.89;71.41
23118;BME280;11728;50.624;6.014;2023-03-16T03:30:36;98317.47;;;4.88;71.28
23118;BME280;11728;50.624;6.014;2023-03-16T03:35:36;98313.97;;;4.86;71.40
23118;BME280;11728;50.624;6.014;2023-03-16T03:40:36;98315.69;;;4.84;71.34
23118;BME280;11728;50.624;6.014;2023-03-16T03:45:37;98296.53;;;4.85;71.33
23118;BME280;11728;50.624;6.014;2023-03-16T03:50:37;98310.47;;;4.78;71.85
23118;BME280;11728;50.624;6.014;2023-03-16T03:55:39;98313.97;;;4.76;71.94
23118;BME280;11728;50.624;6.014;2023-03-16T04:00:40;98308.75;;;4.74;72.09
23118;BME280;11728;50.624;6.014;2023-03-16T04:05:40;98307.84;;;4.74;72.15
23118;BME280;11728;50.624;6.014;2023-03-16T04:10:40;98316.56;;;4.73;72.38
23118;BME280;11728;50.624;6.014;2023-03-16T04:15:41;98313.97;;;4.71;72.50
23118;BME280;11728;50.624;6.014;2023-03-16T04:20:42;98318.31;;;4.68;72.58
23118;BME280;11728;50.624;6.014;2023-03-16T04:25:42;98324.44;;;4.65;72.82
23118;BME280;11728;50.624;6.014;2023-03-16T04:30:44;98316.59;;;4.65;73.11
23118;BME280;11728;50.624;6.014;2023-03-16T04:35:44;98296.53;;;4.64;73.15
23118;BME280;11728;50.624;6.014;2023-03-16T04:40:45;98293.03;;;4.62;73.11
23118;BME280;11728;50.624;6.014;2023-03-16T04:45:45;98287.81;;;4.62;73.51
23118;BME280;11728;50.624;6.014;2023-03-16T04:50:48;98280.84;;;4.66;73.50
23118;BME280;11728;50.624;6.014;2023-03-16T04:55:49;98271.25;;;4.71;73.11
23118;BME280;11728;50.624;6.014;2023-03-16T05:00:51;98271.25;;;4.74;73.20
23118;BME280;11728;50.624;6.014;2023-03-16T05:05:52;98264.25;;;4.73;73.24
23118;BME280;11728;50.624;6.014;2023-03-16T05:10:56;98261.66;;;4.71;73.33
23118;BME280;11728;50.624;6.014;2023-03-16T05:15:57;98277.38;;;4.74;73.23
23118;BME280;11728;50.624;6.014;2023-03-16T05:20:57;98279.97;;;4.79;73.19
23118;BME280;11728;50.624;6.014;2023-03-16T05:25:57;98277.34;;;4.83;72.86
23118;BME280;11728;50.624;6.014;2023-03-16T05:30:58;98286.03;;;4.91;72.26
23118;BME280;11728;50.624;6.014;2023-03-16T05:36:03;98275.59;;;4.94;71.81
23118;BME280;11728;50.624;6.014;2023-03-16T05:41:04;98272.97;;;4.96;71.96
23118;BME280;11728;50.624;6.014;2023-03-16T05:46:04;98288.66;;;4.96;71.83
23118;BME280;11728;50.624;6.014;2023-03-16T05:51:05;98274.72;;;5.01;71.78
23118;BME280;11728;50.624;6.014;2023-03-16T05:56:05;98266.88;;;5.04;71.71
23118;BME280;11728;50.624;6.014;2023-03-16T06:01:06;98260.75;;;5.02;71.59
23118;BME280;11728;50.624;6.014;2023-03-16T06:06:08;98264.25;;;5.06;72.03
23118;BME280;11728;50.624;6.014;2023-03-16T06:11:10;98266.84;;;5.10;71.96
23118;BME280;11728;50.624;6.014;2023-03-16T06:16:10;98262.47;;;5.15;72.47
23118;BME280;11728;50.624;6.014;2023-03-16T06:21:13;98260.72;;;5.22;72.38
23118;BME280;11728;50.624;6.014;2023-03-16T06:26:13;98247.59;;;5.32;72.17
23118;BME280;11728;50.624;6.014;2023-03-16T06:31:14;98230.13;;;5.40;72.31
23118;BME280;11728;50.624;6.014;2023-03-16T06:36:14;98230.94;;;5.54;72.31
23118;BME280;11728;50.624;6.014;2023-03-16T06:41:15;98246.56;;;5.70;72.10
23118;BME280;11728;50.624;6.014;2023-03-16T06:46:15;98247.41;;;5.83;71.64
23118;BME280;11728;50.624;6.014;2023-03-16T06:51:15;98256.06;;;5.94;71.53
23118;BME280;11728;50.624;6.014;2023-03-16T06:56:15;98260.38;;;6.05;71.11
23118;BME280;11728;50.624;6.014;2023-03-16T07:01:16;98238.59;;;5.99;70.69
23118;BME280;11728;50.624;6.014;2023-03-16T07:06:16;98248.19;;;6.04;69.81
23118;BME280;11728;50.624;6.014;2023-03-16T07:11:17;98249.88;;;6.08;69.72
23118;BME280;11728;50.624;6.014;2023-03-16T07:16:17;98255.97;;;6.14;69.41
23118;BME280;11728;50.624;6.014;2023-03-16T07:21:17;98252.44;;;6.18;69.41
23118;BME280;11728;50.624;6.014;2023-03-16T07:26:18;98248.03;;;6.23;69.02
23118;BME280;11728;50.624;6.014;2023-03-16T07:31:18;98241.91;;;6.27;69.06
23118;BME280;11728;50.624;6.014;2023-03-16T07:36:19;98254.97;;;6.30;68.98
23118;BME280;11728;50.624;6.014;2023-03-16T07:41:19;98253.16;;;6.38;68.67
23118;BME280;11728;50.624;6.014;2023-03-16T07:46:20;98239.06;;;6.56;68.71
23118;BME280;11728;50.624;6.014;2023-03-16T07:51:21;98230.16;;;6.72;67.20
23118;BME280;11728;50.624;6.014;2023-03-16T07:56:21;98223.94;;;6.86;66.94
23118;BME280;11728;50.624;6.014;2023-03-16T08:01:21;98216.69;;;7.09;66.53
23118;BME280;11728;50.624;6.014;2023-03-16T08:06:23;98218.38;;;7.16;65.50
23118;BME280;11728;50.624;6.014;2023-03-16T08:11:25;98209.44;;;7.30;65.01
23118;BME280;11728;50.624;6.014;2023-03-16T08:16:26;98216.47;;;7.30;64.42
23118;BME280;11728;50.624;6.014;2023-03-16T08:21:26;98221.72;;;7.27;64.74
23118;BME280;11728;50.624;6.014;2023-03-16T08:26:27;98210.34;;;7.29;64.05
23118;BME280;11728;50.624;6.014;2023-03-16T08:31:28;98209.25;;;7.45;63.39
23118;BME280;11728;50.624;6.014;2023-03-16T08:36:29;98223.00;;;7.66;63.20
23118;BME280;11728;50.624;6.014;2023-03-16T08:41:31;98212.28;;;7.84;61.89
23118;BME280;11728;50.624;6.014;2023-03-16T08:46:42;98208.59;;;7.94;62.34
23118;BME280;11728;50.624;6.014;2023-03-16T08:51:43;98198.75;;;8.10;61.65
23118;BME280;11728;50.624;6.014;2023-03-16T08:56:44;98200.03;;;8.40;61.73
23118;BME280;11728;50.624;6.014;2023-03-16T09:01:44;98200.09;;;8.89;59.59
23118;BME280;11728;50.624;6.014;2023-03-16T09:06:44;98196.47;;;10.59;56.37
23118;BME280;11728;50.624;6.014;2023-03-16T09:11:46;98193.59;;;11.02;54.75
23118;BME280;11728;50.624;6.014;2023-03-16T09:16:48;98192.41;;;11.77;53.48
23118;BME280;11728;50.624;6.014;2023-03-16T09:21:49;98184.28;;;13.18;49.98
23118;BME280;11728;50.624;6.014;2023-03-16T09:26:50;98183.50;;;14.55;47.68
23118;BME280;11728;50.624;6.014;2023-03-16T09:31:51;98175.41;;;15.60;44.30
23118;BME280;11728;50.624;6.014;2023-03-16T09:36:51;98181.50;;;15.82;43.61
23118;BME280;11728;50.624;6.014;2023-03-16T09:47:12;98190.44;;;13.19;45.06
23118;BME280;11728;50.624;6.014;2023-03-16T09:57:26;98178.09;;;12.94;45.29
23118;BME280;11728;50.624;6.014;2023-03-16T10:12:41;98139.16;;;15.76;41.62
23118;BME280;11728;50.624;6.014;2023-03-16T10:22:53;98154.97;;;16.17;39.26
23118;BME280;11728;50.624;6.014;2023-03-16T10:27:54;98148.13;;;17.36;37.86
23118;BME280;11728;50.624;6.014;2023-03-16T10:38:41;98129.94;;;17.27;37.85
23118;BME280;11728;50.624;6.014;2023-03-16T10:48:59;98110.41;;;18.07;35.88
23118;BME280;11728;50.624;6.014;2023-03-16T10:54:07;98120.47;;;17.37;36.16
23118;BME280;11728;50.624;6.014;2023-03-16T11:04:18;98121.66;;;16.09;38.00
23118;BME280;11728;50.624;6.014;2023-03-16T11:09:42;98127.19;;;16.23;38.48
23118;BME280;11728;50.624;6.014;2023-03-16T11:14:43;98117.53;;;16.74;37.46
23118;BME280;11728;50.624;6.014;2023-03-16T11:19:55;98112.53;;;16.50;38.02
23118;BME280;11728;50.624;6.014;2023-03-16T11:30:13;98079.66;;;18.46;35.57
23118;BME280;11728;50.624;6.014;2023-03-16T11:35:18;98077.69;;;18.94;34.10
23118;BME280;11728;50.624;6.014;2023-03-16T11:46:14;98073.25;;;20.21;32.55
23118;BME280;11728;50.624;6.014;2023-03-16T11:51:31;98057.09;;;19.10;32.04
23118;BME280;11728;50.624;6.014;2023-03-16T11:56:38;98062.69;;;18.32;33.72
23118;BME280;11728;50.624;6.014;2023-03-16T12:11:56;98031.91;;;18.25;34.32
23118;BME280;11728;50.624;6.014;2023-03-16T12:17:11;98040.31;;;19.36;33.92
23118;BME280;11728;50.624;6.014;2023-03-16T12:22:33;98022.28;;;18.81;34.26
23118;BME280;11728;50.624;6.014;2023-03-16T12:27:38;98016.56;;;18.28;34.52
23118;BME280;11728;50.624;6.014;2023-03-16T12:38:24;97999.88;;;17.29;36.04
23118;BME280;11728;50.624;6.014;2023-03-16T12:48:37;97986.94;;;17.54;35.80
23118;BME280;11728;50.624;6.014;2023-03-16T12:58:55;97976.94;;;18.19;35.15
23118;BME280;11728;50.624;6.014;2023-03-16T13:04:21;97976.00;;;18.05;34.52
23118;BME280;11728;50.624;6.014;2023-03-16T13:09:26;97962.03;;;18.15;35.40
23118;BME280;11728;50.624;6.014;2023-03-16T13:14:42;97951.97;;;18.93;35.01
23118;BME280;11728;50.624;6.014;2023-03-16T13:30:30;97929.84;;;21.53;31.15
23118;BME280;11728;50.624;6.014;2023-03-16T13:35:31;97931.97;;;20.73;30.67
23118;BME280;11728;50.624;6.014;2023-03-16T13:40:31;97927.56;;;20.60;31.18
23118;BME280;11728;50.624;6.014;2023-03-16T13:45:35;97933.66;;;19.97;31.82
23118;BME280;11728;50.624;6.014;2023-03-16T13:50:36;97925.16;;;19.22;32.47
23118;BME280;11728;50.624;6.014;2023-03-16T13:55:39;97901.31;;;18.76;32.90
23118;BME280;11728;50.624;6.014;2023-03-16T14:00:42;97889.38;;;18.81;32.72
23118;BME280;11728;50.624;6.014;2023-03-16T14:05:45;97886.88;;;18.92;33.04
23118;BME280;11728;50.624;6.014;2023-03-16T14:10:47;97875.59;;;18.73;33.01
23118;BME280;11728;50.624;6.014;2023-03-16T14:15:48;97879.06;;;19.03;33.01
23118;BME280;11728;50.624;6.014;2023-03-16T14:20:55;97874.97;;;18.54;33.37
23118;BME280;11728;50.624;6.014;2023-03-16T14:25:56;97857.44;;;18.64;33.52
23118;BME280;11728;50.624;6.014;2023-03-16T14:31:10;97843.50;;;18.73;33.16
23118;BME280;11728;50.624;6.014;2023-03-16T14:36:16;97844.06;;;18.64;32.73
23118;BME280;11728;50.624;6.014;2023-03-16T14:41:20;97839.84;;;18.17;33.96
23118;BME280;11728;50.624;6.014;2023-03-16T14:51:32;97852.91;;;17.48;33.83
23118;BME280;11728;50.624;6.014;2023-03-16T14:56:34;97853.88;;;17.47;34.07
23118;BME280;11728;50.624;6.014;2023-03-16T15:01:35;97837.81;;;17.62;34.16
23118;BME280;11728;50.624;6.014;2023-03-16T15:06:35;97830.63;;;17.33;34.96
23118;BME280;11728;50.624;6.014;2023-03-16T15:11:36;97837.94;;;16.82;35.70
23118;BME280;11728;50.624;6.014;2023-03-16T15:16:37;97821.69;;;16.71;35.70
23118;BME280;11728;50.624;6.014;2023-03-16T15:21:38;97822.88;;;16.66;35.94
23118;BME280;11728;50.624;6.014;2023-03-16T15:26:39;97831.34;;;16.57;36.11
23118;BME280;11728;50.624;6.014;2023-03-16T15:31:39;97814.00;;;16.16;36.30
23118;BME280;11728;50.624;6.014;2023-03-16T15:36:40;97805.09;;;15.83;36.99
23118;BME280;11728;50.624;6.014;2023-03-16T15:41:40;97817.28;;;15.53;37.54
23118;BME280;11728;50.624;6.014;2023-03-16T15:46:42;97810.00;;;15.22;37.95
23118;BME280;11728;50.624;6.014;2023-03-16T15:51:43;97815.41;;;15.02;38.67
23118;BME280;11728;50.624;6.014;2023-03-16T15:56:43;97803.53;;;14.90;39.12
23118;BME280;11728;50.624;6.014;2023-03-16T16:01:46;97789.69;;;14.84;39.71
23118;BME280;11728;50.624;6.014;2023-03-16T16:06:47;97790.63;;;14.64;39.69
23118;BME280;11728;50.624;6.014;2023-03-16T16:11:51;97768.72;;;14.41;40.01
23118;BME280;11728;50.624;6.014;2023-03-16T16:16:52;97772.81;;;14.30;40.61
23118;BME280;11728;50.624;6.014;2023-03-16T16:21:53;97774.59;;;14.29;40.36
23118;BME280;11728;50.624;6.014;2023-03-16T16:26:53;97774.47;;;14.12;40.44
23118;BME280;11728;50.624;6.014;2023-03-16T16:31:54;97752.91;;;14.00;40.77
23118;BME280;11728;50.624;6.014;2023-03-16T16:36:55;97759.03;;;13.82;41.35
23118;BME280;11728;50.624;6.014;2023-03-16T16:41:56;97748.75;;;13.55;41.54
23118;BME280;11728;50.624;6.014;2023-03-16T16:46:57;97758.41;;;13.36;42.17
23118;BME280;11728;50.624;6.014;2023-03-16T16:51:58;97751.41;;;13.13;42.52
23118;BME280;11728;50.624;6.014;2023-03-16T16:56:59;97736.38;;;12.93;42.65
23118;BME280;11728;50.624;6.014;2023-03-16T17:02:01;97740.72;;;12.72;43.61
23118;BME280;11728;50.624;6.014;2023-03-16T17:07:05;97757.19;;;12.59;43.76
23118;BME280;11728;50.624;6.014;2023-03-16T17:12:14;97744.41;;;12.47;44.30
23118;BME280;11728;50.624;6.014;2023-03-16T17:17:16;97746.88;;;12.28;44.70
23118;BME280;11728;50.624;6.014;2023-03-16T17:22:25;97730.81;;;12.12;45.08
23118;BME280;11728;50.624;6.014;2023-03-16T17:27:28;97728.38;;;12.06;45.20
23118;BME280;11728;50.624;6.014;2023-03-16T17:32:30;97737.44;;;11.99;45.61
23118;BME280;11728;50.624;6.014;2023-03-16T17:37:31;97756.34;;;11.90;45.81
23118;BME280;11728;50.624;6.014;2023-03-16T17:42:31;97755.78;;;11.80;45.83
23118;BME280;11728;50.624;6.014;2023-03-16T17:47:32;97754.50;;;11.67;46.04
23118;BME280;11728;50.624;6.014;2023-03-16T17:52:37;97746.94;;;11.57;46.53
23118;BME280;11728;50.624;6.014;2023-03-16T17:57:37;97739.53;;;11.42;46.97
23118;BME280;11728;50.624;6.014;2023-03-16T18:07:58;97742.16;;;11.18;46.91
23118;BME280;11728;50.624;6.014;2023-03-16T18:13:06;97727.81;;;11.25;46.34
23118;BME280;11728;50.624;6.014;2023-03-16T18:18:15;97728.78;;;11.22;46.17
23118;BME280;11728;50.624;6.014;2023-03-16T18:23:18;97725.31;;;11.20;46.20
23118;BME280;11728;50.624;6.014;2023-03-16T18:28:19;97722.78;;;11.17;45.86
23118;BME280;11728;50.624;6.014;2023-03-16T18:33:37;97710.38;;;11.19;45.47
23118;BME280;11728;50.624;6.014;2023-03-16T18:38:41;97718.38;;;11.18;45.49
23118;BME280;11728;50.624;6.014;2023-03-16T18:43:42;97707.03;;;11.14;45.36
23118;BME280;11728;50.624;6.014;2023-03-16T18:48:43;97735.41;;;11.09;45.40
23118;BME280;11728;50.624;6.014;2023-03-16T18:53:43;97725.31;;;11.20;44.93
23118;BME280;11728;50.624;6.014;2023-03-16T18:58:44;97718.38;;;11.18;44.64
23118;BME280;11728;50.624;6.014;2023-03-16T19:03:44;97728.28;;;11.11;44.48
23118;BME280;11728;50.624;6.014;2023-03-16T19:08:45;97721.97;;;11.15;44.11
23118;BME280;11728;50.624;6.014;2023-03-16T19:13:45;97719.22;;;11.18;44.04
23118;BME280;11728;50.624;6.014;2023-03-16T19:18:46;97719.13;;;11.21;43.90
23118;BME280;11728;50.624;6.014;2023-03-16T19:24:06;97722.97;;;11.11;44.08
23118;BME280;11728;50.624;6.014;2023-03-16T19:29:18;97718.44;;;11.16;43.80
23118;BME280;11728;50.624;6.014;2023-03-16T19:34:19;97715.56;;;11.22;43.67
23118;BME280;11728;50.624;6.014;2023-03-16T19:39:19;97705.91;;;11.21;43.81
23118;BME280;11728;50.624;6.014;2023-03-16T19:44:22;97710.50;;;11.16;43.99
23118;BME280;11728;50.624;6.014;2023-03-16T19:49:25;97700.56;;;11.23;43.73
23118;BME280;11728;50.624;6.014;2023-03-16T19:54:28;97691.19;;;11.14;44.14
23118;BME280;11728;50.624;6.014;2023-03-16T19:59:32;97691.78;;;11.22;43.66
23118;BME280;11728;50.624;6.014;2023-03-16T20:04:33;97685.25;;;11.32;43.55
23118;BME280;11728;50.624;6.014;2023-03-16T20:09:34;97667.69;;;11.31;43.44
23118;BME280;11728;50.624;6.014;2023-03-16T20:14:34;97676.31;;;11.36;43.31
23118;BME280;11728;50.624;6.014;2023-03-16T20:19:34;97666.31;;;11.44;43.04
23118;BME280;11728;50.624;6.014;2023-03-16T20:24:35;97657.41;;;11.47;43.05
23118;BME280;11728;50.624;6.014;2023-03-16T20:29:36;97645.91;;;11.48;42.96
23118;BME280;11728;50.624;6.014;2023-03-16T20:34:36;97652.88;;;11.50;42.64
23118;BME280;11728;50.624;6.014;2023-03-16T20:39:38;97628.25;;;11.48;42.73
23118;BME280;11728;50.624;6.014;2023-03-16T20:44:39;97612.09;;;11.57;42.34
23118;BME280;11728;50.624;6.014;2023-03-16T20:49:40;97606.41;;;11.67;41.96
23118;BME280;11728;50.624;6.014;2023-03-16T20:54:40;97608.31;;;11.64;41.96
23118;BME280;11728;50.624;6.014;2023-03-16T20:59:41;97594.44;;;11.57;41.90
23118;BME280;11728;50.624;6.014;2023-03-16T21:04:42;97597.28;;;11.53;42.02
23118;BME280;11728;50.624;6.014;2023-03-16T21:09:43;97592.03;;;11.51;41.94
23118;BME280;11728;50.624;6.014;2023-03-16T21:14:43;97581.00;;;11.39;42.38
23118;BME280;11728;50.624;6.014;2023-03-16T21:19:43;97611.94;;;11.37;42.21
23118;BME280;11728;50.624;6.014;2023-03-16T21:24:44;97628.25;;;11.48;41.90
23118;BME280;11728;50.624;6.014;2023-03-16T21:29:44;97613.16;;;11.53;42.10
23118;BME280;11728;50.624;6.014;2023-03-16T21:34:45;97606.34;;;11.69;41.55
23118;BME280;11728;50.624;6.014;2023-03-16T21:39:46;97596.50;;;11.72;41.43
23118;BME280;11728;50.624;6.014;2023-03-16T21:44:50;97609.19;;;11.86;41.03
23118;BME280;11728;50.624;6.014;2023-03-16T21:49:51;97592.41;;;11.87;40.88
23118;BME280;11728;50.624;6.014;2023-03-16T21:54:54;97578.84;;;11.96;40.51
23118;BME280;11728;50.624;6.014;2023-03-16T21:59:55;97572.47;;;12.00;40.13
23118;BME280;11728;50.624;6.014;2023-03-16T22:04:56;97549.53;;;12.00;40.35
23118;BME280;11728;50.624;6.014;2023-03-16T22:09:57;97544.13;;;12.03;40.28
23118;BME280;11728;50.624;6.014;2023-03-16T22:14:57;97540.25;;;12.12;39.84
23118;BME280;11728;50.624;6.014;2023-03-16T22:19:58;97539.44;;;12.10;39.93
23118;BME280;11728;50.624;6.014;2023-03-16T22:24:58;97534.53;;;12.01;40.03
23118;BME280;11728;50.624;6.014;2023-03-16T22:29:58;97523.94;;;12.22;39.28
23118;BME280;11728;50.624;6.014;2023-03-16T22:34:59;97530.06;;;12.23;39.60
23118;BME280;11728;50.624;6.014;2023-03-16T22:40:00;97541.28;;;12.29;39.21
23118;BME280;11728;50.624;6.014;2023-03-16T22:45:01;97520.13;;;12.27;39.17
23118;BME280;11728;50.624;6.014;2023-03-16T22:50:01;97518.56;;;12.24;39.39
23118;BME280;11728;50.624;6.014;2023-03-16T22:55:03;97515.53;;;12.32;39.24
23118;BME280;11728;50.624;6.014;2023-03-16T23:00:04;97523.56;;;12.31;39.43
23118;BME280;11728;50.624;6.014;2023-03-16T23:05:17;97511.81;;;12.36;39.45
23118;BME280;11728;50.624;6.014;2023-03-16T23:10:23;97517.00;;;12.39;39.40
23118;BME280;11728;50.624;6.014;2023-03-16T23:15:27;97505.03;;;12.31;39.73
23118;BME280;11728;50.624;6.014;2023-03-16T23:20:30;97519.84;;;12.35;40.00
23118;BME280;11728;50.624;6.014;2023-03-16T23:25:31;97512.09;;;12.30;40.04
23118;BME280;11728;50.624;6.014;2023-03-16T23:30:32;97515.66;;;12.29;40.35
23118;BME280;11728;50.624;6.014;2023-03-16T23:35:33;97522.94;;;12.25;40.33
23118;BME280;11728;50.624;6.014;2023-03-16T23:40:36;97521.03;;;12.07;40.91
23118;BME280;11728;50.624;6.014;2023-03-16T23:45:40;97545.09;;;12.01;41.15
23118;BME280;11728;50.624;6.014;2023-03-16T23:50:44;97518.44;;;11.84;41.21
23118;BME280;11728;50.624;6.014;2023-03-16T23:55:47;97537.03;;;11.82;41.54
